sensor_id;sensor_type;location;lat;lon;timestamp;pressure;altitude;pressure_sealevel;temperature;humidity
67457;BME280;54319;52.038;4.640;2023-05-31T00:02:01;102797.03;;;11.26;97.87
67457;BME280;54319;52.038;4.640;2023-05-31T00:04:27;102783.38;;;11.18;97.85
67457;BME280;54319;52.038;4.640;2023-05-31T00:06:54;102784.56;;;11.15;97.78
67457;BME280;54319;52.038;4.640;2023-05-31T00:09:22;102782.84;;;11.14;97.85
67457;BME280;54319;52.038;4.640;2023-05-31T00:11:48;102783.38;;;11.18;97.66
67457;BME280;54319;52.038;4.640;2023-05-31T00:14:15;102764.22;;;11.02;98.05
67457;BME280;54319;52.038;4.640;2023-05-31T00:16:41;102790.53;;;11.19;97.91
67457;BME280;54319;52.038;4.640;2023-05-31T00:19:08;102798.22;;;11.15;98.04
67457;BME280;54319;52.038;4.640;2023-05-31T00:21:35;102792.56;;;11.17;97.84
67457;BME280;54319;52.038;4.640;2023-05-31T00:24:01;102784.19;;;11.10;98.19
67457;BME280;54319;52.038;4.640;2023-05-31T00:26:29;102794.94;;;11.12;98.14
67457;BME280;54319;52.038;4.640;2023-05-31T00:28:56;102791.38;;;11.11;97.96
67457;BME280;54319;52.038;4.640;2023-05-31T00:31:23;102784.53;;;11.07;98.00
67457;BME280;54319;52.038;4.640;2023-05-31T00:33:49;102782.66;;;11.08;98.00
67457;BME280;54319;52.038;4.640;2023-05-31T00:36:16;102791.03;;;11.06;97.88
67457;BME280;54319;52.038;4.640;2023-05-31T00:38:43;102777.31;;;10.98;97.94
67457;BME280;54319;52.038;4.640;2023-05-31T00:41:10;102727.81;;;10.68;97.97
67457;BME280;54319;52.038;4.640;2023-05-31T00:43:38;102786.25;;;11.00;97.78
67457;BME280;54319;52.038;4.640;2023-05-31T00:46:05;102761.28;;;10.86;98.21
67457;BME280;54319;52.038;4.640;2023-05-31T00:48:33;102782.97;;;10.96;98.13
67457;BME280;54319;52.038;4.640;2023-05-31T00:50:59;102781.41;;;10.94;98.15
67457;BME280;54319;52.038;4.640;2023-05-31T00:53:27;102786.88;;;10.94;98.26
67457;BME280;54319;52.038;4.640;2023-05-31T00:55:53;102782.97;;;10.88;98.25
67457;BME280;54319;52.038;4.640;2023-05-31T00:58:22;102786.38;;;10.90;98.33
67457;BME280;54319;52.038;4.640;2023-05-31T01:00:50;102790.13;;;10.89;98.19
67457;BME280;54319;52.038;4.640;2023-05-31T01:03:17;102779.19;;;10.81;98.50
67457;BME280;54319;52.038;4.640;2023-05-31T01:05:44;102781.72;;;10.74;98.85
67457;BME280;54319;52.038;4.640;2023-05-31T01:08:11;102775.22;;;10.67;99.13
67457;BME280;54319;52.038;4.640;2023-05-31T01:10:39;102795.56;;;10.81;98.75
67457;BME280;54319;52.038;4.640;2023-05-31T01:13:13;102787.53;;;10.79;99.16
67457;BME280;54319;52.038;4.640;2023-05-31T01:15:45;102747.84;;;10.50;99.45
67457;BME280;54319;52.038;4.640;2023-05-31T01:18:17;102788.56;;;10.78;99.74
67457;BME280;54319;52.038;4.640;2023-05-31T01:20:51;102792.47;;;10.76;99.44
67457;BME280;54319;52.038;4.640;2023-05-31T01:23:31;102788.03;;;10.75;99.18
67457;BME280;54319;52.038;4.640;2023-05-31T01:29:04;102780.69;;;10.67;99.98
67457;BME280;54319;52.038;4.640;2023-05-31T01:31:33;102779.31;;;10.63;99.86
67457;BME280;54319;52.038;4.640;2023-05-31T01:34:01;102777.72;;;10.52;99.89
67457;BME280;54319;52.038;4.640;2023-05-31T01:36:29;102785.44;;;10.65;100.00
67457;BME280;54319;52.038;4.640;2023-05-31T01:38:56;102783.06;;;10.62;100.00
67457;BME280;54319;52.038;4.640;2023-05-31T01:41:24;102790.38;;;10.61;100.00
67457;BME280;54319;52.038;4.640;2023-05-31T01:43:52;102741.59;;;10.23;100.00
67457;BME280;54319;52.038;4.640;2023-05-31T01:46:22;102783.34;;;10.59;100.00
67457;BME280;54319;52.038;4.640;2023-05-31T01:48:50;102783.69;;;10.55;100.00
67457;BME280;54319;52.038;4.640;2023-05-31T01:51:18;102787.44;;;10.54;100.00
67457;BME280;54319;52.038;4.640;2023-05-31T01:53:45;102788.63;;;10.52;100.00
67457;BME280;54319;52.038;4.640;2023-05-31T01:56:12;102790.50;;;10.51;100.00
67457;BME280;54319;52.038;4.640;2023-05-31T01:58:41;102780.94;;;10.47;100.00
67457;BME280;54319;52.038;4.640;2023-05-31T02:01:14;102780.09;;;10.47;100.00
67457;BME280;54319;52.038;4.640;2023-05-31T02:03:44;102780.25;;;10.45;100.00
67457;BME280;54319;52.038;4.640;2023-05-31T02:06:10;102779.56;;;10.43;100.00
67457;BME280;54319;52.038;4.640;2023-05-31T02:08:39;102782.59;;;10.40;100.00
67457;BME280;54319;52.038;4.640;2023-05-31T02:11:06;102772.13;;;10.35;100.00
67457;BME280;54319;52.038;4.640;2023-05-31T02:13:33;102773.53;;;10.39;100.00
67457;BME280;54319;52.038;4.640;2023-05-31T02:16:00;102776.44;;;10.38;100.00
67457;BME280;54319;52.038;4.640;2023-05-31T02:18:26;102773.16;;;10.34;100.00
67457;BME280;54319;52.038;4.640;2023-05-31T02:20:54;102769.59;;;10.34;100.00
67457;BME280;54319;52.038;4.640;2023-05-31T02:23:21;102769.75;;;10.32;100.00
67457;BME280;54319;52.038;4.640;2023-05-31T02:25:48;102767.53;;;10.27;100.00
67457;BME280;54319;52.038;4.640;2023-05-31T02:28:15;102771.97;;;10.28;100.00
67457;BME280;54319;52.038;4.640;2023-05-31T02:30:52;102781.16;;;10.27;100.00
67457;BME280;54319;52.038;4.640;2023-05-31T02:33:20;102781.50;;;10.24;100.00
67457;BME280;54319;52.038;4.640;2023-05-31T02:35:47;102790.84;;;10.22;100.00
67457;BME280;54319;52.038;4.640;2023-05-31T02:38:15;102740.44;;;9.99;100.00
67457;BME280;54319;52.038;4.640;2023-05-31T02:40:41;102775.81;;;10.18;100.00
67457;BME280;54319;52.038;4.640;2023-05-31T02:43:08;102769.50;;;10.17;100.00
67457;BME280;54319;52.038;4.640;2023-05-31T02:45:35;102765.06;;;10.16;100.00
67457;BME280;54319;52.038;4.640;2023-05-31T02:48:02;102757.53;;;10.10;100.00
67457;BME280;54319;52.038;4.640;2023-05-31T02:50:30;102757.53;;;10.10;100.00
67457;BME280;54319;52.038;4.640;2023-05-31T02:52:57;102762.16;;;10.09;100.00
67457;BME280;54319;52.038;4.640;2023-05-31T02:55:27;102765.88;;;10.08;100.00
67457;BME280;54319;52.038;4.640;2023-05-31T02:57:54;102759.88;;;10.05;100.00
67457;BME280;54319;52.038;4.640;2023-05-31T03:00:21;102752.69;;;9.95;100.00
67457;BME280;54319;52.038;4.640;2023-05-31T03:02:48;102765.66;;;10.02;100.00
67457;BME280;54319;52.038;4.640;2023-05-31T03:05:14;102771.28;;;10.00;100.00
67457;BME280;54319;52.038;4.640;2023-05-31T03:07:41;102753.53;;;9.96;100.00
67457;BME280;54319;52.038;4.640;2023-05-31T03:10:08;102739.16;;;9.85;100.00
67457;BME280;54319;52.038;4.640;2023-05-31T03:12:37;102750.59;;;9.89;100.00
67457;BME280;54319;52.038;4.640;2023-05-31T03:15:05;102762.91;;;9.93;100.00
67457;BME280;54319;52.038;4.640;2023-05-31T03:17:32;102754.34;;;9.88;100.00
67457;BME280;54319;52.038;4.640;2023-05-31T03:19:58;102760.31;;;9.92;100.00
67457;BME280;54319;52.038;4.640;2023-05-31T03:22:25;102755.88;;;9.91;100.00
67457;BME280;54319;52.038;4.640;2023-05-31T03:24:52;102749.22;;;9.85;100.00
67457;BME280;54319;52.038;4.640;2023-05-31T03:27:18;102758.94;;;9.88;100.00
67457;BME280;54319;52.038;4.640;2023-05-31T03:29:46;102755.50;;;9.85;100.00
67457;BME280;54319;52.038;4.640;2023-05-31T03:32:13;102750.06;;;9.85;100.00
67457;BME280;54319;52.038;4.640;2023-05-31T03:34:39;102751.94;;;9.85;100.00
67457;BME280;54319;52.038;4.640;2023-05-31T03:37:06;102746.09;;;9.80;100.00
67457;BME280;54319;52.038;4.640;2023-05-31T03:39:33;102748.50;;;9.83;100.00
67457;BME280;54319;52.038;4.640;2023-05-31T03:42:00;102747.81;;;9.81;100.00
67457;BME280;54319;52.038;4.640;2023-05-31T03:44:27;102751.22;;;9.83;100.00
67457;BME280;54319;52.038;4.640;2023-05-31T03:46:55;102745.78;;;9.83;100.00
67457;BME280;54319;52.038;4.640;2023-05-31T03:49:22;102754.97;;;9.82;100.00
67457;BME280;54319;52.038;4.640;2023-05-31T03:51:48;102753.44;;;9.79;100.00
67457;BME280;54319;52.038;4.640;2023-05-31T03:54:15;102756.69;;;9.83;100.00
67457;BME280;54319;52.038;4.640;2023-05-31T03:56:42;102764.16;;;9.81;100.00
67457;BME280;54319;52.038;4.640;2023-05-31T03:59:08;102765.88;;;9.82;100.00
67457;BME280;54319;52.038;4.640;2023-05-31T04:01:35;102761.66;;;9.88;100.00
67457;BME280;54319;52.038;4.640;2023-05-31T04:04:03;102759.63;;;9.90;100.00
67457;BME280;54319;52.038;4.640;2023-05-31T04:06:30;102772.09;;;9.92;100.00
67457;BME280;54319;52.038;4.640;2023-05-31T04:08:57;102763.91;;;9.92;100.00
67457;BME280;54319;52.038;4.640;2023-05-31T04:11:23;102765.41;;;9.87;100.00
67457;BME280;54319;52.038;4.640;2023-05-31T04:13:51;102764.94;;;9.91;100.00
67457;BME280;54319;52.038;4.640;2023-05-31T04:16:17;102764.44;;;9.96;100.00
67457;BME280;54319;52.038;4.640;2023-05-31T04:18:44;102758.09;;;9.87;100.00
67457;BME280;54319;52.038;4.640;2023-05-31T04:21:12;102766.16;;;9.97;100.00
67457;BME280;54319;52.038;4.640;2023-05-31T04:23:38;102771.44;;;9.98;100.00
67457;BME280;54319;52.038;4.640;2023-05-31T04:26:05;102764.09;;;9.99;100.00
67457;BME280;54319;52.038;4.640;2023-05-31T04:28:32;102776.56;;;10.02;100.00
67457;BME280;54319;52.038;4.640;2023-05-31T04:31:00;102774.53;;;10.04;100.00
67457;BME280;54319;52.038;4.640;2023-05-31T04:33:27;102760.53;;;9.98;100.00
67457;BME280;54319;52.038;4.640;2023-05-31T04:35:55;102777.63;;;10.09;100.00
67457;BME280;54319;52.038;4.640;2023-05-31T04:38:23;102770.16;;;10.11;100.00
67457;BME280;54319;52.038;4.640;2023-05-31T04:40:53;102775.13;;;10.16;100.00
67457;BME280;54319;52.038;4.640;2023-05-31T04:43:20;102772.91;;;10.19;100.00
67457;BME280;54319;52.038;4.640;2023-05-31T04:45:47;102776.34;;;10.21;100.00
67457;BME280;54319;52.038;4.640;2023-05-31T04:48:14;102778.75;;;10.24;100.00
67457;BME280;54319;52.038;4.640;2023-05-31T04:50:42;102782.69;;;10.30;100.00
67457;BME280;54319;52.038;4.640;2023-05-31T04:53:09;102785.09;;;10.33;100.00
67457;BME280;54319;52.038;4.640;2023-05-31T04:55:37;102780.19;;;10.37;100.00
67457;BME280;54319;52.038;4.640;2023-05-31T04:58:04;102781.44;;;10.42;100.00
67457;BME280;54319;52.038;4.640;2023-05-31T05:00:30;102781.81;;;10.48;100.00
67457;BME280;54319;52.038;4.640;2023-05-31T05:02:57;102777.72;;;10.52;100.00
67457;BME280;54319;52.038;4.640;2023-05-31T05:05:24;102779.94;;;10.56;100.00
67457;BME280;54319;52.038;4.640;2023-05-31T05:07:51;102771.59;;;10.58;100.00
67457;BME280;54319;52.038;4.640;2023-05-31T05:10:18;102775.22;;;10.67;100.00
67457;BME280;54319;52.038;4.640;2023-05-31T05:12:46;102775.72;;;10.70;100.00
67457;BME280;54319;52.038;4.640;2023-05-31T05:15:13;102770.63;;;10.76;100.00
67457;BME280;54319;52.038;4.640;2023-05-31T05:17:39;102771.16;;;10.79;100.00
67457;BME280;54319;52.038;4.640;2023-05-31T05:20:08;102773.91;;;10.88;100.00
67457;BME280;54319;52.038;4.640;2023-05-31T05:22:35;102773.22;;;10.94;100.00
67457;BME280;54319;52.038;4.640;2023-05-31T05:25:02;102776.16;;;11.00;100.00
67457;BME280;54319;52.038;4.640;2023-05-31T05:27:29;102772.94;;;11.05;100.00
67457;BME280;54319;52.038;4.640;2023-05-31T05:29:57;102786.06;;;11.10;100.00
67457;BME280;54319;52.038;4.640;2023-05-31T05:32:24;102736.69;;;10.86;100.00
67457;BME280;54319;52.038;4.640;2023-05-31T05:34:50;102781.31;;;11.20;100.00
67457;BME280;54319;52.038;4.640;2023-05-31T05:37:17;102749.72;;;11.09;100.00
67457;BME280;54319;52.038;4.640;2023-05-31T05:39:44;102785.22;;;11.34;100.00
67457;BME280;54319;52.038;4.640;2023-05-31T05:42:10;102762.00;;;11.30;100.00
67457;BME280;54319;52.038;4.640;2023-05-31T05:44:37;102786.97;;;11.43;100.00
67457;BME280;54319;52.038;4.640;2023-05-31T05:47:05;102786.28;;;11.50;100.00
67457;BME280;54319;52.038;4.640;2023-05-31T05:49:32;102792.25;;;11.53;100.00
67457;BME280;54319;52.038;4.640;2023-05-31T05:51:59;102787.97;;;11.59;100.00
67457;BME280;54319;52.038;4.640;2023-05-31T05:54:26;102784.41;;;11.67;100.00
67457;BME280;54319;52.038;4.640;2023-05-31T05:56:53;102788.50;;;11.71;100.00
67457;BME280;54319;52.038;4.640;2023-05-31T05:59:19;102784.91;;;11.70;100.00
67457;BME280;54319;52.038;4.640;2023-05-31T06:01:46;102784.56;;;11.82;99.98
67457;BME280;54319;52.038;4.640;2023-05-31T06:04:14;102783.19;;;11.86;99.72
67457;BME280;54319;52.038;4.640;2023-05-31T06:06:41;102781.81;;;11.90;99.69
67457;BME280;54319;52.038;4.640;2023-05-31T06:09:07;102781.97;;;11.97;99.72
67457;BME280;54319;52.038;4.640;2023-05-31T06:11:34;102788.66;;;12.02;99.67
67457;BME280;54319;52.038;4.640;2023-05-31T06:14:01;102788.97;;;12.08;98.86
67457;BME280;54319;52.038;4.640;2023-05-31T06:16:27;102778.72;;;12.10;98.32
67457;BME280;54319;52.038;4.640;2023-05-31T06:18:54;102781.13;;;12.13;98.17
67457;BME280;54319;52.038;4.640;2023-05-31T06:21:22;102784.19;;;12.18;98.18
67457;BME280;54319;52.038;4.640;2023-05-31T06:23:49;102780.53;;;12.26;97.61
67457;BME280;54319;52.038;4.640;2023-05-31T06:26:16;102789.59;;;12.35;97.35
67457;BME280;54319;52.038;4.640;2023-05-31T06:28:44;102793.69;;;12.39;96.93
67457;BME280;54319;52.038;4.640;2023-05-31T06:31:11;102796.56;;;12.45;96.82
67457;BME280;54319;52.038;4.640;2023-05-31T06:33:37;102798.44;;;12.53;96.53
67457;BME280;54319;52.038;4.640;2023-05-31T06:36:04;102796.19;;;12.57;96.40
67457;BME280;54319;52.038;4.640;2023-05-31T06:38:32;102800.78;;;12.65;96.42
67457;BME280;54319;52.038;4.640;2023-05-31T06:40:59;102793.03;;;12.68;96.04
67457;BME280;54319;52.038;4.640;2023-05-31T06:43:25;102792.50;;;12.73;95.82
67457;BME280;54319;52.038;4.640;2023-05-31T06:45:52;102788.38;;;12.77;95.66
67457;BME280;54319;52.038;4.640;2023-05-31T06:48:18;102793.34;;;12.82;95.49
67457;BME280;54319;52.038;4.640;2023-05-31T06:50:45;102784.44;;;12.80;95.03
67457;BME280;54319;52.038;4.640;2023-05-31T06:53:12;102799.25;;;12.94;94.63
67457;BME280;54319;52.038;4.640;2023-05-31T06:55:40;102788.25;;;13.02;94.33
67457;BME280;54319;52.038;4.640;2023-05-31T06:58:07;102766.91;;;12.89;94.16
67457;BME280;54319;52.038;4.640;2023-05-31T07:00:34;102787.47;;;13.16;93.63
67457;BME280;54319;52.038;4.640;2023-05-31T07:03:00;102791.38;;;13.22;93.75
67457;BME280;54319;52.038;4.640;2023-05-31T07:05:28;102775.75;;;13.23;92.99
67457;BME280;54319;52.038;4.640;2023-05-31T07:07:55;102796.25;;;13.35;92.77
67457;BME280;54319;52.038;4.640;2023-05-31T07:10:22;102791.75;;;13.42;92.17
67457;BME280;54319;52.038;4.640;2023-05-31T07:12:50;102793.69;;;13.57;91.92
67457;BME280;54319;52.038;4.640;2023-05-31T07:15:17;102786.16;;;13.74;92.13
67457;BME280;54319;52.038;4.640;2023-05-31T07:17:43;102792.28;;;14.14;90.64
67457;BME280;54319;52.038;4.640;2023-05-31T07:20:10;102789.13;;;14.62;88.52
67457;BME280;54319;52.038;4.640;2023-05-31T07:22:37;102789.63;;;15.03;86.20
67457;BME280;54319;52.038;4.640;2023-05-31T07:25:05;102792.78;;;15.43;84.57
67457;BME280;54319;52.038;4.640;2023-05-31T07:27:32;102780.00;;;15.79;82.32
67457;BME280;54319;52.038;4.640;2023-05-31T07:30:00;102750.13;;;16.04;81.23
67457;BME280;54319;52.038;4.640;2023-05-31T07:32:26;102771.31;;;16.46;78.51
67457;BME280;54319;52.038;4.640;2023-05-31T07:34:53;102771.25;;;16.81;77.37
67457;BME280;54319;52.038;4.640;2023-05-31T07:37:20;102779.63;;;17.21;76.93
67457;BME280;54319;52.038;4.640;2023-05-31T07:39:46;102780.31;;;17.64;73.05
67457;BME280;54319;52.038;4.640;2023-05-31T07:42:13;102765.41;;;17.92;71.63
67457;BME280;54319;52.038;4.640;2023-05-31T07:44:40;102781.25;;;18.44;71.18
67457;BME280;54319;52.038;4.640;2023-05-31T07:47:08;102765.03;;;18.54;67.89
67457;BME280;54319;52.038;4.640;2023-05-31T07:49:34;102768.47;;;18.88;67.49
67457;BME280;54319;52.038;4.640;2023-05-31T07:52:01;102770.50;;;19.13;65.94
67457;BME280;54319;52.038;4.640;2023-05-31T07:54:29;102768.19;;;19.10;65.26
67457;BME280;54319;52.038;4.640;2023-05-31T07:56:56;102771.00;;;18.97;65.89
67457;BME280;54319;52.038;4.640;2023-05-31T07:59:23;102774.78;;;19.09;65.59
67457;BME280;54319;52.038;4.640;2023-05-31T08:01:50;102770.94;;;19.10;66.61
67457;BME280;54319;52.038;4.640;2023-05-31T08:04:18;102743.84;;;18.87;65.08
67457;BME280;54319;52.038;4.640;2023-05-31T08:06:44;102773.28;;;19.13;65.64
67457;BME280;54319;52.038;4.640;2023-05-31T08:09:11;102764.47;;;19.23;65.71
67457;BME280;54319;52.038;4.640;2023-05-31T08:11:37;102765.22;;;19.37;63.56
67457;BME280;54319;52.038;4.640;2023-05-31T08:14:04;102769.13;;;19.55;64.33
67457;BME280;54319;52.038;4.640;2023-05-31T08:16:32;102767.41;;;19.79;62.04
67457;BME280;54319;52.038;4.640;2023-05-31T08:18:59;102766.03;;;20.14;62.54
67457;BME280;54319;52.038;4.640;2023-05-31T08:21:27;102756.56;;;20.40;61.12
67457;BME280;54319;52.038;4.640;2023-05-31T08:23:54;102760.69;;;20.49;59.23
67457;BME280;54319;52.038;4.640;2023-05-31T08:26:20;102758.78;;;20.31;59.73
67457;BME280;54319;52.038;4.640;2023-05-31T08:28:47;102751.97;;;20.64;59.10
67457;BME280;54319;52.038;4.640;2023-05-31T08:31:14;102755.97;;;20.87;59.88
67457;BME280;54319;52.038;4.640;2023-05-31T08:33:52;102758.84;;;21.23;57.99
67457;BME280;54319;52.038;4.640;2023-05-31T08:36:19;102753.28;;;21.23;57.28
67457;BME280;54319;52.038;4.640;2023-05-31T08:38:47;102753.03;;;21.13;55.98
67457;BME280;54319;52.038;4.640;2023-05-31T08:41:15;102749.22;;;20.95;56.84
67457;BME280;54319;52.038;4.640;2023-05-31T08:43:44;102738.91;;;21.14;56.18
67457;BME280;54319;52.038;4.640;2023-05-31T08:46:11;102752.25;;;20.93;56.27
67457;BME280;54319;52.038;4.640;2023-05-31T08:48:43;102747.44;;;21.01;57.39
67457;BME280;54319;52.038;4.640;2023-05-31T08:51:11;102747.50;;;21.13;57.78
67457;BME280;54319;52.038;4.640;2023-05-31T08:53:40;102741.19;;;21.05;57.47
67457;BME280;54319;52.038;4.640;2023-05-31T08:56:09;102755.03;;;20.93;57.31
67457;BME280;54319;52.038;4.640;2023-05-31T08:58:37;102748.56;;;20.81;58.45
67457;BME280;54319;52.038;4.640;2023-05-31T09:01:04;102734.97;;;20.61;58.73
67457;BME280;54319;52.038;4.640;2023-05-31T09:03:32;102745.81;;;20.62;59.64
67457;BME280;54319;52.038;4.640;2023-05-31T09:05:59;102733.38;;;20.53;58.62
67457;BME280;54319;52.038;4.640;2023-05-31T09:08:25;102740.72;;;20.29;59.31
67457;BME280;54319;52.038;4.640;2023-05-31T09:10:52;102750.72;;;20.30;59.76
67457;BME280;54319;52.038;4.640;2023-05-31T09:13:20;102740.28;;;20.44;61.32
67457;BME280;54319;52.038;4.640;2023-05-31T09:15:48;102738.78;;;20.48;60.38
67457;BME280;54319;52.038;4.640;2023-05-31T09:18:18;102734.47;;;20.64;60.50
67457;BME280;54319;52.038;4.640;2023-05-31T09:20:46;102729.00;;;20.76;59.00
67457;BME280;54319;52.038;4.640;2023-05-31T09:23:13;102728.00;;;20.89;58.12
67457;BME280;54319;52.038;4.640;2023-05-31T09:25:44;102737.56;;;21.05;57.81
67457;BME280;54319;52.038;4.640;2023-05-31T09:28:11;102734.47;;;20.64;58.27
67457;BME280;54319;52.038;4.640;2023-05-31T09:30:39;102732.38;;;20.78;57.76
67457;BME280;54319;52.038;4.640;2023-05-31T09:33:06;102716.53;;;20.85;59.32
67457;BME280;54319;52.038;4.640;2023-05-31T09:35:33;102728.66;;;21.15;58.32
67457;BME280;54319;52.038;4.640;2023-05-31T09:38:04;102715.63;;;21.15;58.26
67457;BME280;54319;52.038;4.640;2023-05-31T09:40:31;102708.00;;;20.99;56.58
67457;BME280;54319;52.038;4.640;2023-05-31T09:42:59;102708.34;;;21.02;56.90
67457;BME280;54319;52.038;4.640;2023-05-31T09:45:25;102723.47;;;21.18;57.21
67457;BME280;54319;52.038;4.640;2023-05-31T09:47:55;102724.38;;;21.43;55.86
67457;BME280;54319;52.038;4.640;2023-05-31T09:50:23;102727.59;;;21.28;56.40
67457;BME280;54319;52.038;4.640;2023-05-31T09:52:55;102724.84;;;21.51;55.82
67457;BME280;54319;52.038;4.640;2023-05-31T09:55:22;102728.38;;;21.82;56.47
67457;BME280;54319;52.038;4.640;2023-05-31T09:57:51;102680.41;;;21.51;54.98
67457;BME280;54319;52.038;4.640;2023-05-31T10:00:19;102717.38;;;21.76;55.22
67457;BME280;54319;52.038;4.640;2023-05-31T10:02:47;102715.31;;;21.95;54.29
67457;BME280;54319;52.038;4.640;2023-05-31T10:05:16;102709.75;;;21.95;54.66
67457;BME280;54319;52.038;4.640;2023-05-31T10:07:45;102701.00;;;22.15;55.00
67457;BME280;54319;52.038;4.640;2023-05-31T10:10:12;102704.66;;;22.16;53.72
67457;BME280;54319;52.038;4.640;2023-05-31T10:12:48;102712.69;;;22.29;53.22
67457;BME280;54319;52.038;4.640;2023-05-31T10:15:17;102700.84;;;22.34;53.22
67457;BME280;54319;52.038;4.640;2023-05-31T10:17:50;102709.91;;;22.29;53.14
67457;BME280;54319;52.038;4.640;2023-05-31T10:20:24;102710.97;;;22.52;53.25
67457;BME280;54319;52.038;4.640;2023-05-31T10:22:54;102678.28;;;22.59;52.67
67457;BME280;54319;52.038;4.640;2023-05-31T10:25:28;102703.88;;;22.90;52.46
67457;BME280;54319;52.038;4.640;2023-05-31T10:28:00;102700.81;;;22.92;52.16
67457;BME280;54319;52.038;4.640;2023-05-31T10:30:31;102703.91;;;23.07;51.51
67457;BME280;54319;52.038;4.640;2023-05-31T10:33:05;102687.63;;;22.99;51.12
67457;BME280;54319;52.038;4.640;2023-05-31T10:35:33;102701.34;;;23.06;50.81
67457;BME280;54319;52.038;4.640;2023-05-31T10:38:00;102696.16;;;23.26;52.46
67457;BME280;54319;52.038;4.640;2023-05-31T10:40:33;102694.91;;;23.51;51.94
67457;BME280;54319;52.038;4.640;2023-05-31T10:43:07;102682.41;;;23.76;51.22
67457;BME280;54319;52.038;4.640;2023-05-31T10:45:38;102694.72;;;23.80;49.88
67457;BME280;54319;52.038;4.640;2023-05-31T10:48:13;102691.00;;;23.92;49.18
67457;BME280;54319;52.038;4.640;2023-05-31T10:50:55;102682.25;;;23.83;49.02
67457;BME280;54319;52.038;4.640;2023-05-31T10:53:27;102683.41;;;23.87;49.83
67457;BME280;54319;52.038;4.640;2023-05-31T10:56:01;102686.22;;;23.70;50.46
67457;BME280;54319;52.038;4.640;2023-05-31T10:58:29;102667.84;;;23.91;49.28
67457;BME280;54319;52.038;4.640;2023-05-31T11:00:57;102681.72;;;23.86;48.93
67457;BME280;54319;52.038;4.640;2023-05-31T11:03:24;102683.22;;;23.72;49.86
67457;BME280;54319;52.038;4.640;2023-05-31T11:05:57;102676.53;;;23.73;49.10
67457;BME280;54319;52.038;4.640;2023-05-31T11:08:25;102681.19;;;23.89;48.48
67457;BME280;54319;52.038;4.640;2023-05-31T11:10:52;102665.94;;;23.52;47.28
67457;BME280;54319;52.038;4.640;2023-05-31T11:13:19;102674.34;;;23.75;47.49
67457;BME280;54319;52.038;4.640;2023-05-31T11:15:46;102672.66;;;23.74;48.81
67457;BME280;54319;52.038;4.640;2023-05-31T11:18:14;102667.03;;;23.91;47.81
67457;BME280;54319;52.038;4.640;2023-05-31T11:20:40;102670.81;;;23.84;48.38
67457;BME280;54319;52.038;4.640;2023-05-31T11:23:28;102665.34;;;23.90;47.44
67457;BME280;54319;52.038;4.640;2023-05-31T11:26:08;102663.78;;;23.99;48.36
67457;BME280;54319;52.038;4.640;2023-05-31T11:31:16;102665.19;;;24.46;46.06
67457;BME280;54319;52.038;4.640;2023-05-31T11:33:44;102657.34;;;24.70;46.40
67457;BME280;54319;52.038;4.640;2023-05-31T11:36:10;102660.31;;;24.64;45.39
67457;BME280;54319;52.038;4.640;2023-05-31T11:38:42;102651.94;;;24.91;45.32
67457;BME280;54319;52.038;4.640;2023-05-31T11:41:08;102655.16;;;25.10;45.97
67457;BME280;54319;52.038;4.640;2023-05-31T11:43:35;102651.78;;;25.03;45.27
67457;BME280;54319;52.038;4.640;2023-05-31T11:46:01;102650.44;;;25.11;45.37
67457;BME280;54319;52.038;4.640;2023-05-31T11:48:30;102653.31;;;25.21;45.52
67457;BME280;54319;52.038;4.640;2023-05-31T11:51:01;102642.31;;;25.09;43.76
67457;BME280;54319;52.038;4.640;2023-05-31T11:53:27;102648.78;;;25.15;45.27
67457;BME280;54319;52.038;4.640;2023-05-31T11:55:56;102636.13;;;25.02;43.63
67457;BME280;54319;52.038;4.640;2023-05-31T11:58:24;102641.03;;;25.22;43.63
67457;BME280;54319;52.038;4.640;2023-05-31T12:00:51;102625.63;;;24.82;43.85
67457;BME280;54319;52.038;4.640;2023-05-31T12:03:17;102625.81;;;25.03;45.30
67457;BME280;54319;52.038;4.640;2023-05-31T12:05:49;102624.56;;;25.21;43.83
67457;BME280;54319;52.038;4.640;2023-05-31T12:08:16;102623.53;;;25.37;44.29
67457;BME280;54319;52.038;4.640;2023-05-31T12:10:42;102624.13;;;25.44;44.14
67457;BME280;54319;52.038;4.640;2023-05-31T12:13:12;102616.72;;;25.66;43.36
67457;BME280;54319;52.038;4.640;2023-05-31T12:15:41;102616.53;;;25.88;43.67
67457;BME280;54319;52.038;4.640;2023-05-31T12:18:07;102611.28;;;26.07;42.16
67457;BME280;54319;52.038;4.640;2023-05-31T12:20:34;102617.81;;;26.34;42.18
67457;BME280;54319;52.038;4.640;2023-05-31T12:23:10;102606.88;;;26.27;40.92
67457;BME280;54319;52.038;4.640;2023-05-31T12:25:37;102610.81;;;26.41;42.34
67457;BME280;54319;52.038;4.640;2023-05-31T12:28:03;102609.13;;;26.51;41.57
67457;BME280;54319;52.038;4.640;2023-05-31T12:30:31;102613.34;;;26.64;42.06
67457;BME280;54319;52.038;4.640;2023-05-31T12:32:57;102603.31;;;26.73;41.02
67457;BME280;54319;52.038;4.640;2023-05-31T12:35:24;102599.66;;;27.04;41.05
67457;BME280;54319;52.038;4.640;2023-05-31T12:37:51;102602.47;;;26.98;40.99
67457;BME280;54319;52.038;4.640;2023-05-31T12:40:19;102594.31;;;27.02;41.36
67457;BME280;54319;52.038;4.640;2023-05-31T12:42:46;102594.00;;;27.24;39.99
67457;BME280;54319;52.038;4.640;2023-05-31T12:45:12;102592.31;;;27.23;40.53
67457;BME280;54319;52.038;4.640;2023-05-31T12:47:45;102592.81;;;27.46;40.07
67457;BME280;54319;52.038;4.640;2023-05-31T12:50:21;102594.50;;;27.47;38.40
67457;BME280;54319;52.038;4.640;2023-05-31T12:52:54;102590.59;;;27.53;38.52
67457;BME280;54319;52.038;4.640;2023-05-31T12:55:21;102587.84;;;27.22;39.43
67457;BME280;54319;52.038;4.640;2023-05-31T12:57:47;102586.72;;;27.18;39.56